sensor_id;sensor_type;location;lat;lon;timestamp;P1;durP1;ratioP1;P2;durP2;ratioP2
37771;SDS011;23610;59.380;24.642;2024-03-22T00:00:29;46.67;;;13.07;;
37771;SDS011;23610;59.380;24.642;2024-03-22T00:05:44;28.23;;;11.20;;
37771;SDS011;23610;59.380;24.642;2024-03-22T00:11:13;27.52;;;12.20;;
37771;SDS011;23610;59.380;24.642;2024-03-22T00:16:28;66.30;;;20.35;;
37771;SDS011;23610;59.380;24.642;2024-03-22T00:22:00;48.50;;;13.93;;
37771;SDS011;23610;59.380;24.642;2024-03-22T00:27:15;33.10;;;13.45;;
37771;SDS011;23610;59.380;24.642;2024-03-22T00:32:44;32.40;;;10.80;;
37771;SDS011;23610;59.380;24.642;2024-03-22T00:38:06;24.15;;;11.60;;
37771;SDS011;23610;59.380;24.642;2024-03-22T00:43:35;32.80;;;12.43;;
37771;SDS011;23610;59.380;24.642;2024-03-22T00:48:50;28.25;;;10.93;;
37771;SDS011;23610;59.380;24.642;2024-03-22T00:54:19;27.02;;;9.32;;
37771;SDS011;23610;59.380;24.642;2024-03-22T00:59:34;14.60;;;8.20;;
37771;SDS011;23610;59.380;24.642;2024-03-22T01:05:03;22.17;;;10.00;;
37771;SDS011;23610;59.380;24.642;2024-03-22T01:10:18;14.48;;;7.32;;
37771;SDS011;23610;59.380;24.642;2024-03-22T01:15:47;27.92;;;6.85;;
37771;SDS011;23610;59.380;24.642;2024-03-22T01:21:02;26.38;;;6.63;;
37771;SDS011;23610;59.380;24.642;2024-03-22T01:26:31;10.20;;;4.60;;
37771;SDS011;23610;59.380;24.642;2024-03-22T01:31:47;8.95;;;5.45;;
37771;SDS011;23610;59.380;24.642;2024-03-22T01:37:15;5.28;;;4.35;;
37771;SDS011;23610;59.380;24.642;2024-03-22T01:42:30;5.65;;;3.67;;
37771;SDS011;23610;59.380;24.642;2024-03-22T01:47:59;8.88;;;4.40;;
37771;SDS011;23610;59.380;24.642;2024-03-22T01:53:14;8.45;;;5.18;;
37771;SDS011;23610;59.380;24.642;2024-03-22T01:58:43;8.02;;;5.00;;
37771;SDS011;23610;59.380;24.642;2024-03-22T02:03:59;11.63;;;6.15;;
37771;SDS011;23610;59.380;24.642;2024-03-22T02:09:28;12.27;;;5.50;;
37771;SDS011;23610;59.380;24.642;2024-03-22T02:14:43;7.95;;;5.57;;
37771;SDS011;23610;59.380;24.642;2024-03-22T02:20:12;7.30;;;3.53;;
37771;SDS011;23610;59.380;24.642;2024-03-22T02:25:27;6.32;;;3.55;;
37771;SDS011;23610;59.380;24.642;2024-03-22T02:30:56;5.90;;;4.18;;
37771;SDS011;23610;59.380;24.642;2024-03-22T02:36:11;9.30;;;3.95;;
37771;SDS011;23610;59.380;24.642;2024-03-22T02:41:40;7.32;;;3.80;;
37771;SDS011;23610;59.380;24.642;2024-03-22T02:46:55;7.88;;;4.38;;
37771;SDS011;23610;59.380;24.642;2024-03-22T02:52:24;10.43;;;4.50;;
37771;SDS011;23610;59.380;24.642;2024-03-22T02:57:46;5.00;;;3.65;;
37771;SDS011;23610;59.380;24.642;2024-03-22T03:03:16;5.85;;;3.55;;
37771;SDS011;23610;59.380;24.642;2024-03-22T03:08:31;6.28;;;4.53;;
37771;SDS011;23610;59.380;24.642;2024-03-22T03:14:00;6.13;;;4.30;;
37771;SDS011;23610;59.380;24.642;2024-03-22T03:19:15;7.70;;;4.43;;
37771;SDS011;23610;59.380;24.642;2024-03-22T03:24:44;7.03;;;3.92;;
37771;SDS011;23610;59.380;24.642;2024-03-22T03:29:59;6.43;;;4.03;;
37771;SDS011;23610;59.380;24.642;2024-03-22T03:35:28;8.48;;;4.28;;
37771;SDS011;23610;59.380;24.642;2024-03-22T03:40:43;8.02;;;4.80;;
37771;SDS011;23610;59.380;24.642;2024-03-22T03:46:12;6.68;;;3.90;;
37771;SDS011;23610;59.380;24.642;2024-03-22T03:51:27;7.30;;;4.20;;
37771;SDS011;23610;59.380;24.642;2024-03-22T03:56:56;7.57;;;4.28;;
37771;SDS011;23610;59.380;24.642;2024-03-22T04:02:11;8.80;;;5.43;;
37771;SDS011;23610;59.380;24.642;2024-03-22T04:07:40;7.45;;;4.55;;
37771;SDS011;23610;59.380;24.642;2024-03-22T04:12:57;5.97;;;4.25;;
37771;SDS011;23610;59.380;24.642;2024-03-22T04:18:25;28.70;;;15.07;;
37771;SDS011;23610;59.380;24.642;2024-03-22T04:23:40;31.95;;;14.65;;
37771;SDS011;23610;59.380;24.642;2024-03-22T04:29:09;11.90;;;7.35;;
37771;SDS011;23610;59.380;24.642;2024-03-22T04:34:24;12.20;;;6.35;;
37771;SDS011;23610;59.380;24.642;2024-03-22T04:39:53;8.02;;;4.13;;
37771;SDS011;23610;59.380;24.642;2024-03-22T04:45:08;8.05;;;4.72;;
37771;SDS011;23610;59.380;24.642;2024-03-22T04:50:37;7.00;;;4.43;;
37771;SDS011;23610;59.380;24.642;2024-03-22T04:55:52;6.43;;;4.50;;
37771;SDS011;23610;59.380;24.642;2024-03-22T05:01:21;7.43;;;3.92;;
37771;SDS011;23610;59.380;24.642;2024-03-22T05:06:37;4.65;;;3.88;;
37771;SDS011;23610;59.380;24.642;2024-03-22T05:12:06;5.18;;;3.50;;
37771;SDS011;23610;59.380;24.642;2024-03-22T05:17:21;6.25;;;3.67;;
37771;SDS011;23610;59.380;24.642;2024-03-22T05:22:52;10.27;;;4.30;;
37771;SDS011;23610;59.380;24.642;2024-03-22T05:28:07;6.32;;;3.90;;
37771;SDS011;23610;59.380;24.642;2024-03-22T05:33:36;7.47;;;5.20;;
37771;SDS011;23610;59.380;24.642;2024-03-22T05:38:51;5.38;;;3.33;;
37771;SDS011;23610;59.380;24.642;2024-03-22T05:44:23;4.55;;;2.88;;
37771;SDS011;23610;59.380;24.642;2024-03-22T05:49:38;4.55;;;3.65;;
37771;SDS011;23610;59.380;24.642;2024-03-22T05:55:07;5.85;;;2.83;;
37771;SDS011;23610;59.380;24.642;2024-03-22T06:00:22;5.05;;;3.20;;
37771;SDS011;23610;59.380;24.642;2024-03-22T06:05:52;4.25;;;3.13;;
37771;SDS011;23610;59.380;24.642;2024-03-22T06:11:10;3.90;;;2.75;;
37771;SDS011;23610;59.380;24.642;2024-03-22T06:16:39;3.83;;;2.70;;
37771;SDS011;23610;59.380;24.642;2024-03-22T06:21:54;3.08;;;2.78;;
37771;SDS011;23610;59.380;24.642;2024-03-22T06:27:23;19.75;;;3.90;;
37771;SDS011;23610;59.380;24.642;2024-03-22T06:32:38;4.72;;;3.35;;
37771;SDS011;23610;59.380;24.642;2024-03-22T06:38:07;5.22;;;3.42;;
37771;SDS011;23610;59.380;24.642;2024-03-22T06:43:22;4.32;;;3.10;;
37771;SDS011;23610;59.380;24.642;2024-03-22T06:48:52;5.93;;;3.67;;
37771;SDS011;23610;59.380;24.642;2024-03-22T06:54:06;4.32;;;3.55;;
37771;SDS011;23610;59.380;24.642;2024-03-22T06:59:35;6.55;;;3.95;;
37771;SDS011;23610;59.380;24.642;2024-03-22T07:04:50;6.55;;;3.70;;
37771;SDS011;23610;59.380;24.642;2024-03-22T07:10:19;7.20;;;4.50;;
37771;SDS011;23610;59.380;24.642;2024-03-22T07:15:35;5.68;;;3.72;;
37771;SDS011;23610;59.380;24.642;2024-03-22T07:21:04;5.93;;;3.65;;
37771;SDS011;23610;59.380;24.642;2024-03-22T07:26:19;6.20;;;4.55;;
37771;SDS011;23610;59.380;24.642;2024-03-22T07:31:48;6.60;;;3.80;;
37771;SDS011;23610;59.380;24.642;2024-03-22T07:37:03;7.80;;;4.30;;
37771;SDS011;23610;59.380;24.642;2024-03-22T07:42:50;5.30;;;3.83;;
37771;SDS011;23610;59.380;24.642;2024-03-22T07:48:20;6.13;;;4.00;;
37771;SDS011;23610;59.380;24.642;2024-03-22T07:53:38;6.00;;;4.53;;
37771;SDS011;23610;59.380;24.642;2024-03-22T07:59:06;6.43;;;3.85;;
37771;SDS011;23610;59.380;24.642;2024-03-22T08:04:21;8.32;;;4.72;;
37771;SDS011;23610;59.380;24.642;2024-03-22T08:09:50;8.13;;;5.55;;
37771;SDS011;23610;59.380;24.642;2024-03-22T08:15:05;9.75;;;5.60;;
37771;SDS011;23610;59.380;24.642;2024-03-22T08:20:34;10.32;;;5.55;;
37771;SDS011;23610;59.380;24.642;2024-03-22T08:25:52;5.20;;;3.53;;
37771;SDS011;23610;59.380;24.642;2024-03-22T08:31:21;6.28;;;3.95;;
37771;SDS011;23610;59.380;24.642;2024-03-22T08:36:39;3.67;;;2.95;;
37771;SDS011;23610;59.380;24.642;2024-03-22T08:42:08;4.60;;;2.88;;
37771;SDS011;23610;59.380;24.642;2024-03-22T08:47:23;3.70;;;2.97;;
37771;SDS011;23610;59.380;24.642;2024-03-22T08:52:54;12.30;;;3.33;;
37771;SDS011;23610;59.380;24.642;2024-03-22T08:58:09;4.82;;;2.80;;
37771;SDS011;23610;59.380;24.642;2024-03-22T09:03:38;6.05;;;4.53;;
37771;SDS011;23610;59.380;24.642;2024-03-22T09:08:53;5.30;;;4.60;;
37771;SDS011;23610;59.380;24.642;2024-03-22T09:14:22;3.72;;;3.10;;
37771;SDS011;23610;59.380;24.642;2024-03-22T09:19:37;4.80;;;3.03;;
37771;SDS011;23610;59.380;24.642;2024-03-22T09:25:06;5.57;;;4.63;;
37771;SDS011;23610;59.380;24.642;2024-03-22T09:30:21;4.22;;;3.17;;
37771;SDS011;23610;59.380;24.642;2024-03-22T09:35:50;49.67;;;28.58;;
37771;SDS011;23610;59.380;24.642;2024-03-22T09:41:06;7.47;;;5.20;;
37771;SDS011;23610;59.380;24.642;2024-03-22T09:46:35;3.85;;;2.58;;
37771;SDS011;23610;59.380;24.642;2024-03-22T09:51:51;9.77;;;5.40;;
37771;SDS011;23610;59.380;24.642;2024-03-22T09:57:20;32.33;;;25.45;;
37771;SDS011;23610;59.380;24.642;2024-03-22T10:02:36;3.33;;;3.03;;
37771;SDS011;23610;59.380;24.642;2024-03-22T10:08:05;4.57;;;3.58;;
37771;SDS011;23610;59.380;24.642;2024-03-22T10:13:20;3.72;;;3.35;;
37771;SDS011;23610;59.380;24.642;2024-03-22T10:18:49;2.97;;;2.47;;
37771;SDS011;23610;59.380;24.642;2024-03-22T10:24:04;4.15;;;3.75;;
37771;SDS011;23610;59.380;24.642;2024-03-22T10:29:33;2.30;;;2.10;;
37771;SDS011;23610;59.380;24.642;2024-03-22T10:34:50;2.85;;;2.42;;
37771;SDS011;23610;59.380;24.642;2024-03-22T10:40:21;2.53;;;1.92;;
37771;SDS011;23610;59.380;24.642;2024-03-22T10:45:36;2.53;;;2.33;;
37771;SDS011;23610;59.380;24.642;2024-03-22T10:51:07;2.17;;;1.67;;
37771;SDS011;23610;59.380;24.642;2024-03-22T11:01:50;2.95;;;2.25;;
37771;SDS011;23610;59.380;24.642;2024-03-22T11:07:05;3.42;;;3.10;;
37771;SDS011;23610;59.380;24.642;2024-03-22T11:12:36;2.38;;;1.90;;
37771;SDS011;23610;59.380;24.642;2024-03-22T11:17:54;1.92;;;1.80;;
37771;SDS011;23610;59.380;24.642;2024-03-22T11:23:23;2.15;;;1.83;;
37771;SDS011;23610;59.380;24.642;2024-03-22T11:28:39;2.80;;;2.35;;
37771;SDS011;23610;59.380;24.642;2024-03-22T11:34:07;36.88;;;21.13;;
37771;SDS011;23610;59.380;24.642;2024-03-22T11:39:22;77.05;;;51.30;;
37771;SDS011;23610;59.380;24.642;2024-03-22T11:44:51;11.07;;;10.18;;
37771;SDS011;23610;59.380;24.642;2024-03-22T11:50:06;2.92;;;2.40;;
37771;SDS011;23610;59.380;24.642;2024-03-22T11:55:35;4.25;;;1.90;;
37771;SDS011;23610;59.380;24.642;2024-03-22T12:00:50;2.65;;;1.52;;
37771;SDS011;23610;59.380;24.642;2024-03-22T12:06:20;2.47;;;1.42;;
37771;SDS011;23610;59.380;24.642;2024-03-22T12:11:35;1.48;;;1.30;;
37771;SDS011;23610;59.380;24.642;2024-03-22T12:17:04;1.40;;;1.27;;
37771;SDS011;23610;59.380;24.642;2024-03-22T12:22:22;3.65;;;2.03;;
37771;SDS011;23610;59.380;24.642;2024-03-22T12:27:51;1.38;;;1.27;;
37771;SDS011;23610;59.380;24.642;2024-03-22T12:33:08;1.42;;;1.33;;
37771;SDS011;23610;59.380;24.642;2024-03-22T12:38:47;4.35;;;1.50;;
37771;SDS011;23610;59.380;24.642;2024-03-22T12:44:07;1.50;;;1.17;;
37771;SDS011;23610;59.380;24.642;2024-03-22T12:49:42;1.23;;;1.13;;
37771;SDS011;23610;59.380;24.642;2024-03-22T12:54:57;3.03;;;1.15;;
37771;SDS011;23610;59.380;24.642;2024-03-22T13:00:34;0.95;;;0.93;;
37771;SDS011;23610;59.380;24.642;2024-03-22T13:06:04;0.90;;;0.73;;
37771;SDS011;23610;59.380;24.642;2024-03-22T13:11:33;2.28;;;0.77;;
37771;SDS011;23610;59.380;24.642;2024-03-22T13:16:48;1.02;;;0.70;;
37771;SDS011;23610;59.380;24.642;2024-03-22T13:22:17;1.00;;;0.57;;
37771;SDS011;23610;59.380;24.642;2024-03-22T13:27:35;1.20;;;0.98;;
37771;SDS011;23610;59.380;24.642;2024-03-22T13:33:05;0.63;;;0.60;;
37771;SDS011;23610;59.380;24.642;2024-03-22T13:38:22;1.80;;;0.82;;
37771;SDS011;23610;59.380;24.642;2024-03-22T13:43:53;1.13;;;0.63;;
37771;SDS011;23610;59.380;24.642;2024-03-22T13:49:12;1.67;;;1.33;;
37771;SDS011;23610;59.380;24.642;2024-03-22T13:54:43;0.82;;;0.82;;
37771;SDS011;23610;59.380;24.642;2024-03-22T13:59:58;0.77;;;0.65;;
37771;SDS011;23610;59.380;24.642;2024-03-22T14:05:28;4.00;;;0.80;;
37771;SDS011;23610;59.380;24.642;2024-03-22T14:10:43;1.52;;;1.00;;
37771;SDS011;23610;59.380;24.642;2024-03-22T14:16:13;3.42;;;1.10;;
37771;SDS011;23610;59.380;24.642;2024-03-22T14:21:28;1.67;;;1.20;;
37771;SDS011;23610;59.380;24.642;2024-03-22T14:26:57;2.30;;;1.70;;
37771;SDS011;23610;59.380;24.642;2024-03-22T14:32:12;5.30;;;2.47;;
37771;SDS011;23610;59.380;24.642;2024-03-22T14:37:41;2.92;;;1.80;;
37771;SDS011;23610;59.380;24.642;2024-03-22T14:42:57;3.67;;;1.95;;
37771;SDS011;23610;59.380;24.642;2024-03-22T14:48:26;2.80;;;2.13;;
37771;SDS011;23610;59.380;24.642;2024-03-22T14:53:41;1.92;;;1.55;;
37771;SDS011;23610;59.380;24.642;2024-03-22T14:59:10;1.90;;;1.20;;
37771;SDS011;23610;59.380;24.642;2024-03-22T15:04:25;2.58;;;1.25;;
37771;SDS011;23610;59.380;24.642;2024-03-22T15:09:54;1.73;;;1.17;;
37771;SDS011;23610;59.380;24.642;2024-03-22T15:15:09;19.95;;;9.95;;
37771;SDS011;23610;59.380;24.642;2024-03-22T15:20:38;4.57;;;3.33;;
37771;SDS011;23610;59.380;24.642;2024-03-22T15:25:53;15.88;;;6.72;;
37771;SDS011;23610;59.380;24.642;2024-03-22T15:31:22;16.42;;;9.35;;
37771;SDS011;23610;59.380;24.642;2024-03-22T15:36:37;13.80;;;7.45;;
37771;SDS011;23610;59.380;24.642;2024-03-22T15:42:06;8.68;;;5.25;;
37771;SDS011;23610;59.380;24.642;2024-03-22T15:47:21;11.02;;;7.63;;
37771;SDS011;23610;59.380;24.642;2024-03-22T15:52:50;7.70;;;2.83;;
37771;SDS011;23610;59.380;24.642;2024-03-22T15:58:05;19.23;;;10.32;;
37771;SDS011;23610;59.380;24.642;2024-03-22T16:03:34;6.03;;;3.47;;
37771;SDS011;23610;59.380;24.642;2024-03-22T16:08:49;8.80;;;5.05;;
37771;SDS011;23610;59.380;24.642;2024-03-22T16:14:20;6.05;;;3.10;;
37771;SDS011;23610;59.380;24.642;2024-03-22T16:19:35;3.05;;;2.75;;
37771;SDS011;23610;59.380;24.642;2024-03-22T16:25:07;2.85;;;2.55;;
37771;SDS011;23610;59.380;24.642;2024-03-22T16:30:22;3.58;;;2.75;;
37771;SDS011;23610;59.380;24.642;2024-03-22T16:35:51;3.10;;;2.28;;
37771;SDS011;23610;59.380;24.642;2024-03-22T16:41:06;3.83;;;2.63;;
37771;SDS011;23610;59.380;24.642;2024-03-22T16:46:35;3.90;;;2.47;;
37771;SDS011;23610;59.380;24.642;2024-03-22T16:57:18;2.70;;;2.50;;
37771;SDS011;23610;59.380;24.642;2024-03-22T17:02:33;5.85;;;1.67;;
37771;SDS011;23610;59.380;24.642;2024-03-22T17:08:03;2.30;;;1.35;;
37771;SDS011;23610;59.380;24.642;2024-03-22T17:13:19;3.15;;;1.83;;
37771;SDS011;23610;59.380;24.642;2024-03-22T17:18:48;13.93;;;5.53;;
37771;SDS011;23610;59.380;24.642;2024-03-22T17:24:03;14.52;;;6.32;;
37771;SDS011;23610;59.380;24.642;2024-03-22T17:29:32;7.53;;;3.80;;
37771;SDS011;23610;59.380;24.642;2024-03-22T17:34:47;10.55;;;5.28;;
37771;SDS011;23610;59.380;24.642;2024-03-22T17:40:16;4.63;;;3.40;;
37771;SDS011;23610;59.380;24.642;2024-03-22T17:45:31;7.28;;;4.35;;
37771;SDS011;23610;59.380;24.642;2024-03-22T17:51:00;4.63;;;2.85;;
37771;SDS011;23610;59.380;24.642;2024-03-22T17:56:15;5.65;;;2.30;;
37771;SDS011;23610;59.380;24.642;2024-03-22T18:01:44;2.35;;;1.80;;
37771;SDS011;23610;59.380;24.642;2024-03-22T18:07:01;2.70;;;1.85;;
37771;SDS011;23610;59.380;24.642;2024-03-22T18:12:30;2.38;;;2.17;;
37771;SDS011;23610;59.380;24.642;2024-03-22T18:17:45;3.58;;;1.50;;
37771;SDS011;23610;59.380;24.642;2024-03-22T18:23:14;5.47;;;2.92;;
37771;SDS011;23610;59.380;24.642;2024-03-22T18:28:33;1.80;;;1.42;;
37771;SDS011;23610;59.380;24.642;2024-03-22T18:34:02;1.42;;;1.33;;
37771;SDS011;23610;59.380;24.642;2024-03-22T18:39:24;3.35;;;2.40;;
37771;SDS011;23610;59.380;24.642;2024-03-22T18:44:53;3.67;;;2.40;;
37771;SDS011;23610;59.380;24.642;2024-03-22T18:50:08;1.08;;;0.98;;
37771;SDS011;23610;59.380;24.642;2024-03-22T18:55:41;0.88;;;0.88;;
37771;SDS011;23610;59.380;24.642;2024-03-22T19:00:56;0.80;;;0.80;;
37771;SDS011;23610;59.380;24.642;2024-03-22T19:06:25;0.93;;;0.80;;
37771;SDS011;23610;59.380;24.642;2024-03-22T19:11:40;1.83;;;1.08;;
37771;SDS011;23610;59.380;24.642;2024-03-22T19:17:09;1.60;;;1.50;;
37771;SDS011;23610;59.380;24.642;2024-03-22T19:22:24;3.97;;;1.10;;
37771;SDS011;23610;59.380;24.642;2024-03-22T19:27:53;3.47;;;1.40;;
37771;SDS011;23610;59.380;24.642;2024-03-22T19:33:08;3.53;;;1.55;;
37771;SDS011;23610;59.380;24.642;2024-03-22T19:38:39;2.53;;;1.35;;
37771;SDS011;23610;59.380;24.642;2024-03-22T19:43:54;1.38;;;1.27;;
37771;SDS011;23610;59.380;24.642;2024-03-22T19:49:23;1.85;;;1.30;;
37771;SDS011;23610;59.380;24.642;2024-03-22T19:54:38;1.80;;;1.52;;
37771;SDS011;23610;59.380;24.642;2024-03-22T20:00:07;3.65;;;1.08;;
37771;SDS011;23610;59.380;24.642;2024-03-22T20:05:23;0.60;;;0.60;;
37771;SDS011;23610;59.380;24.642;2024-03-22T20:10:52;1.00;;;0.90;;
37771;SDS011;23610;59.380;24.642;2024-03-22T20:16:07;0.90;;;0.70;;
37771;SDS011;23610;59.380;24.642;2024-03-22T20:21:36;1.83;;;0.88;;
37771;SDS011;23610;59.380;24.642;2024-03-22T20:26:51;2.53;;;1.13;;
37771;SDS011;23610;59.380;24.642;2024-03-22T20:32:20;1.05;;;0.90;;
37771;SDS011;23610;59.380;24.642;2024-03-22T20:37:38;1.50;;;1.40;;
